createdAt,value
2018-08-09T00:01:26.870Z,10.27
2018-08-09T00:03:54.179Z,11.97
2018-08-09T00:06:21.443Z,8.97
2018-08-09T00:08:48.745Z,14.60
2018-08-09T00:11:16.062Z,6.07
2018-08-09T00:13:43.359Z,10.27
2018-08-09T00:16:12.245Z,10.03
2018-08-09T00:18:41.261Z,7.63
2018-08-09T00:21:08.553Z,9.73
2018-08-09T00:23:35.828Z,10.43
2018-08-09T00:26:03.139Z,10.17
2018-08-09T00:28:30.379Z,9.30
2018-08-09T00:30:57.608Z,9.43
2018-08-09T00:33:24.869Z,8.37
2018-08-09T00:35:52.114Z,9.27
2018-08-09T00:38:19.383Z,9.60
2018-08-09T00:40:46.665Z,8.00
2018-08-09T00:43:13.907Z,7.90
2018-08-09T00:45:41.138Z,8.67
2018-08-09T00:48:08.443Z,10.20
2018-08-09T00:50:35.665Z,9.43
2018-08-09T00:53:02.970Z,10.40
2018-08-09T00:55:30.296Z,7.83
2018-08-09T00:57:57.526Z,9.13
2018-08-09T01:00:24.830Z,9.43
2018-08-09T01:02:52.072Z,10.67
2018-08-09T01:05:19.350Z,8.67
2018-08-09T01:07:46.687Z,10.17
2018-08-09T01:10:13.950Z,9.67
2018-08-09T01:12:41.195Z,11.37
2018-08-09T01:15:08.470Z,10.03
2018-08-09T01:17:35.733Z,8.07
2018-08-09T01:20:03.842Z,7.60
2018-08-09T01:22:31.086Z,9.53
2018-08-09T01:24:58.328Z,9.07
2018-08-09T01:27:25.549Z,8.13
2018-08-09T01:29:52.816Z,10.40
2018-08-09T01:32:20.082Z,8.53
2018-08-09T01:34:47.385Z,11.07
2018-08-09T01:37:14.642Z,8.70
2018-08-09T01:39:41.918Z,7.60
2018-08-09T01:42:20.677Z,9.67
2018-08-09T01:44:47.916Z,14.03
2018-08-09T01:47:15.162Z,9.53
2018-08-09T01:49:42.407Z,7.63
2018-08-09T01:52:09.734Z,7.77
2018-08-09T01:54:37.018Z,9.63
2018-08-09T01:57:04.339Z,8.50
2018-08-09T01:59:32.331Z,7.93
2018-08-09T02:01:59.534Z,9.90
2018-08-09T02:04:26.795Z,9.73
2018-08-09T02:06:54.054Z,8.67
2018-08-09T02:09:26.930Z,9.90
2018-08-09T02:11:54.198Z,12.97
2018-08-09T02:14:21.492Z,8.67
2018-08-09T02:16:48.712Z,9.60
2018-08-09T02:19:15.988Z,8.57
2018-08-09T02:21:43.239Z,9.70
2018-08-09T02:24:10.504Z,9.53
2018-08-09T02:26:37.785Z,8.50
2018-08-09T02:29:05.093Z,15.07
2018-08-09T02:31:32.338Z,15.57
2018-08-09T02:33:59.584Z,10.90
2018-08-09T02:36:26.888Z,10.77
2018-08-09T02:38:54.136Z,10.33
2018-08-09T02:41:21.538Z,11.33
2018-08-09T02:43:48.804Z,10.77
2018-08-09T02:46:16.125Z,10.20
2018-08-09T02:48:43.371Z,10.03
2018-08-09T02:51:10.647Z,8.00
2018-08-09T02:53:37.909Z,8.57
2018-08-09T02:56:05.192Z,9.97
2018-08-09T02:58:32.436Z,8.53
2018-08-09T03:00:59.729Z,10.63
2018-08-09T03:03:26.995Z,11.03
2018-08-09T03:05:54.262Z,11.40
2018-08-09T03:08:21.510Z,9.10
2018-08-09T03:10:48.768Z,12.80
2018-08-09T03:13:16.022Z,14.33
2018-08-09T03:15:43.289Z,10.03
2018-08-09T03:18:11.459Z,10.40
2018-08-09T03:20:40.667Z,12.20
2018-08-09T03:23:09.025Z,14.17
2018-08-09T03:25:36.306Z,10.73
2018-08-09T03:28:03.584Z,8.97
2018-08-09T03:30:30.877Z,9.00
2018-08-09T03:32:58.175Z,10.00
2018-08-09T03:35:25.501Z,10.80
2018-08-09T03:37:52.832Z,15.00
2018-08-09T03:40:20.163Z,11.23
2018-08-09T03:42:47.484Z,10.67
2018-08-09T03:45:14.856Z,13.70
2018-08-09T03:47:42.170Z,11.70
2018-08-09T03:50:09.541Z,10.77
2018-08-09T03:52:37.474Z,12.07
2018-08-09T03:55:05.662Z,11.73
2018-08-09T03:57:33.063Z,12.90
2018-08-09T04:00:00.406Z,10.43
2018-08-09T04:02:28.557Z,12.07
2018-08-09T04:04:55.962Z,11.57
2018-08-09T04:07:23.361Z,9.73
2018-08-09T04:09:50.812Z,15.87
2018-08-09T04:12:18.236Z,11.67
2018-08-09T04:14:46.478Z,10.70
2018-08-09T04:17:18.723Z,9.90
2018-08-09T04:19:46.483Z,8.73
2018-08-09T04:22:13.967Z,11.57
2018-08-09T04:24:42.371Z,9.17
2018-08-09T04:27:09.788Z,13.47
2018-08-09T04:29:37.219Z,10.60
2018-08-09T04:32:04.592Z,14.07
2018-08-09T04:34:31.951Z,9.83
2018-08-09T04:36:59.353Z,14.83
2018-08-09T04:39:26.651Z,13.37
2018-08-09T04:41:54.266Z,15.97
2018-08-09T04:44:21.569Z,13.83
2018-08-09T04:46:49.683Z,14.63
2018-08-09T04:49:17.028Z,14.20
2018-08-09T04:51:44.368Z,11.80
2018-08-09T04:54:11.702Z,13.27
2018-08-09T04:56:39.069Z,13.87
2018-08-09T04:59:06.394Z,15.70
2018-08-09T05:01:33.720Z,12.50
2018-08-09T05:04:01.045Z,17.30
2018-08-09T05:06:28.394Z,15.00
2018-08-09T05:08:55.729Z,14.67
2018-08-09T05:11:25.198Z,15.17
2018-08-09T05:13:52.655Z,16.30
2018-08-09T05:16:20.015Z,18.23
2018-08-09T05:18:48.484Z,13.67
2018-08-09T05:21:16.901Z,11.70
2018-08-09T05:23:44.236Z,15.53
2018-08-09T05:26:11.586Z,15.07
2018-08-09T05:28:39.005Z,14.27
2018-08-09T05:31:06.499Z,12.93
2018-08-09T05:33:33.893Z,12.07
2018-08-09T05:36:01.243Z,16.13
2018-08-09T05:38:28.663Z,15.77
2018-08-09T05:40:56.042Z,13.63
2018-08-09T05:43:23.384Z,19.00
2018-08-09T05:45:51.366Z,15.40
2018-08-09T05:48:18.837Z,15.77
2018-08-09T05:50:46.315Z,16.10
2018-08-09T05:53:13.778Z,16.37
2018-08-09T05:55:41.216Z,13.83
2018-08-09T05:58:08.886Z,21.33
2018-08-09T06:00:36.303Z,16.73
2018-08-09T06:03:04.321Z,13.87
2018-08-09T06:08:04.192Z,17.37
2018-08-09T06:10:32.772Z,18.33
2018-08-09T06:13:00.159Z,17.85
2018-08-09T06:15:27.740Z,18.87
2018-08-09T06:17:55.067Z,21.27
2018-08-09T06:20:22.451Z,16.37
2018-08-09T06:22:50.144Z,17.82
2018-08-09T06:25:18.132Z,33.88
2018-08-09T06:27:45.579Z,16.82
2018-08-09T06:30:12.996Z,16.20
2018-08-09T06:32:41.079Z,15.83
2018-08-09T06:35:09.642Z,16.23
2018-08-09T06:37:37.347Z,17.37
2018-08-09T06:40:07.286Z,18.17
2018-08-09T06:42:34.686Z,23.15
2018-08-09T06:45:04.410Z,18.00
2018-08-09T06:47:31.934Z,18.42
2018-08-09T06:49:59.267Z,17.70
2018-08-09T06:52:26.683Z,19.65
2018-08-09T06:54:54.019Z,15.13
2018-08-09T06:57:21.412Z,21.12
2018-08-09T06:59:48.748Z,16.73
2018-08-09T07:02:16.113Z,15.78
2018-08-09T07:04:43.683Z,18.57
2018-08-09T07:07:11.030Z,15.95
2018-08-09T07:09:38.387Z,21.93
2018-08-09T07:12:05.737Z,15.85
2018-08-09T07:14:33.105Z,15.83
2018-08-09T07:17:00.540Z,15.48
2018-08-09T07:19:27.930Z,22.98
2018-08-09T07:21:55.319Z,18.42
2018-08-09T07:24:22.697Z,17.50
2018-08-09T07:26:50.040Z,27.02
2018-08-09T07:29:18.146Z,18.70
2018-08-09T07:31:45.548Z,18.80
2018-08-09T07:34:12.931Z,15.60
2018-08-09T07:36:41.084Z,14.43
2018-08-09T07:39:09.092Z,14.58
2018-08-09T07:41:37.523Z,13.62
2018-08-09T07:44:04.953Z,16.07
2018-08-09T07:46:32.346Z,17.45
2018-08-09T07:48:59.824Z,14.10
2018-08-09T07:51:27.146Z,17.17
2018-08-09T07:53:54.430Z,14.50
2018-08-09T07:56:22.524Z,14.90
2018-08-09T07:58:50.480Z,16.55
2018-08-09T08:01:19.187Z,15.48
2018-08-09T08:03:46.916Z,17.32
2018-08-09T08:06:14.297Z,11.50
2018-08-09T08:08:41.862Z,15.38
2018-08-09T08:11:09.212Z,17.30
2018-08-09T08:13:46.981Z,16.62
2018-08-09T08:16:14.545Z,14.75
2018-08-09T08:18:42.007Z,18.73
2018-08-09T08:21:09.543Z,12.47
2018-08-09T08:23:36.930Z,13.05
2018-08-09T08:26:04.537Z,13.78
2018-08-09T08:28:31.896Z,13.43
2018-08-09T08:30:59.465Z,11.78
2018-08-09T08:33:29.755Z,15.50
2018-08-09T08:35:57.154Z,11.97
2018-08-09T08:38:24.504Z,14.47
2018-08-09T08:40:51.850Z,15.32
2018-08-09T08:43:19.260Z,14.10
2018-08-09T08:45:47.201Z,14.68
2018-08-09T08:48:14.618Z,16.27
2018-08-09T08:50:42.078Z,14.15
2018-08-09T08:53:09.614Z,11.85
2018-08-09T08:55:37.017Z,17.00
2018-08-09T08:58:04.484Z,13.10
2018-08-09T09:00:33.306Z,10.63
2018-08-09T09:03:00.765Z,11.65
2018-08-09T09:05:28.222Z,14.58
2018-08-09T09:07:55.622Z,17.10
2018-08-09T09:10:23.742Z,12.28
2018-08-09T09:12:52.251Z,11.48
2018-08-09T09:15:20.283Z,12.25
2018-08-09T09:17:48.413Z,12.68
2018-08-09T09:20:16.808Z,15.03
2018-08-09T09:22:44.743Z,14.73
2018-08-09T09:25:12.395Z,15.18
2018-08-09T09:27:39.944Z,11.70
2018-08-09T09:30:11.214Z,13.38
2018-08-09T09:32:39.275Z,14.83
2018-08-09T09:35:07.083Z,14.23
2018-08-09T09:37:34.500Z,13.65
2018-08-09T09:40:01.993Z,11.88
2018-08-09T09:42:29.727Z,12.20
2018-08-09T09:44:56.998Z,14.38
2018-08-09T09:47:24.345Z,21.97
2018-08-09T09:49:51.924Z,14.73
2018-08-09T09:52:19.449Z,10.95
2018-08-09T09:54:47.602Z,14.20
2018-08-09T09:57:14.939Z,11.05
2018-08-09T09:59:42.319Z,9.75
2018-08-09T10:02:09.688Z,10.85
2018-08-09T10:04:37.069Z,10.50
2018-08-09T10:07:04.735Z,15.45
2018-08-09T10:09:32.110Z,11.95
2018-08-09T10:12:00.618Z,8.60
2018-08-09T10:14:27.999Z,14.07
2018-08-09T10:16:55.367Z,12.60
2018-08-09T10:19:22.818Z,14.68
2018-08-09T10:21:50.191Z,9.05
2018-08-09T10:24:18.038Z,12.35
2018-08-09T10:26:45.374Z,10.05
2018-08-09T10:29:12.734Z,8.45
2018-08-09T10:31:40.227Z,12.25
2018-08-09T10:34:07.679Z,10.95
2018-08-09T10:36:35.171Z,10.15
2018-08-09T10:39:02.755Z,10.75
2018-08-09T10:41:30.448Z,8.73
2018-08-09T10:43:57.801Z,7.87
2018-08-09T10:46:25.125Z,7.15
2018-08-09T10:48:54.272Z,7.37
2018-08-09T10:51:21.641Z,8.38
2018-08-09T10:53:48.982Z,6.70
2018-08-09T10:56:17.116Z,10.05
2018-08-09T10:58:44.491Z,7.20
2018-08-09T11:01:11.853Z,12.78
2018-08-09T11:03:39.205Z,8.58
2018-08-09T11:06:06.766Z,7.97
2018-08-09T11:08:34.152Z,11.05
2018-08-09T11:11:08.126Z,7.95
2018-08-09T11:13:35.587Z,12.50
2018-08-09T11:16:03.110Z,7.25
2018-08-09T11:18:30.502Z,7.05
2018-08-09T11:20:57.831Z,10.05
2018-08-09T11:23:25.262Z,12.75
2018-08-09T11:25:52.735Z,9.93
2018-08-09T11:28:20.100Z,6.42
2018-08-09T11:30:48.527Z,5.17
2018-08-09T11:33:15.824Z,6.70
2018-08-09T11:35:43.264Z,8.80
2018-08-09T11:38:10.634Z,12.10
2018-08-09T11:40:38.075Z,8.85
2018-08-09T11:43:05.630Z,8.25
2018-08-09T11:45:33.051Z,7.42
2018-08-09T11:48:01.136Z,9.30
2018-08-09T11:50:28.507Z,8.53
2018-08-09T11:52:55.913Z,5.80
2018-08-09T11:55:23.559Z,5.25
2018-08-09T11:57:50.908Z,7.87
2018-08-09T12:00:18.323Z,8.85
2018-08-09T12:02:46.533Z,8.23
2018-08-09T12:05:13.938Z,7.75
2018-08-09T12:07:41.359Z,5.95
2018-08-09T12:10:08.720Z,10.40
2018-08-09T12:12:36.086Z,9.53
2018-08-09T12:15:04.414Z,8.48
2018-08-09T12:17:31.744Z,8.38
2018-08-09T12:19:59.079Z,9.50
2018-08-09T12:22:26.455Z,6.80
2018-08-09T12:24:53.856Z,8.65
2018-08-09T12:27:21.392Z,6.97
2018-08-09T12:29:48.782Z,9.63
2018-08-09T12:32:16.164Z,6.58
2018-08-09T12:34:43.581Z,8.70
2018-08-09T12:37:13.263Z,6.47
2018-08-09T12:39:40.584Z,6.67
2018-08-09T12:42:08.013Z,7.05
2018-08-09T12:44:36.066Z,7.95
2018-08-09T12:47:03.556Z,8.40
2018-08-09T12:49:30.992Z,7.62
2018-08-09T12:51:58.351Z,4.35
2018-08-09T12:54:25.891Z,8.53
2018-08-09T12:56:53.333Z,7.47
2018-08-09T12:59:20.732Z,5.70
2018-08-09T13:01:48.651Z,5.15
2018-08-09T13:04:16.080Z,7.40
2018-08-09T13:06:43.672Z,6.85
2018-08-09T13:09:11.955Z,6.37
2018-08-09T13:11:40.123Z,6.37
2018-08-09T13:14:07.899Z,12.82
2018-08-09T13:16:35.326Z,7.65
2018-08-09T13:19:02.761Z,4.80
2018-08-09T13:21:30.122Z,9.00
2018-08-09T13:23:57.555Z,8.83
2018-08-09T13:26:25.686Z,4.87
2018-08-09T13:28:54.126Z,6.65
2018-08-09T13:31:21.498Z,6.67
2018-08-09T13:33:48.985Z,6.67
2018-08-09T13:36:16.355Z,5.28
2018-08-09T13:38:43.807Z,8.40
2018-08-09T13:41:11.638Z,5.58
2018-08-09T13:43:40.210Z,9.05
2018-08-09T13:46:08.314Z,7.95
2018-08-09T13:48:36.694Z,5.70
2018-08-09T13:51:04.623Z,10.85
2018-08-09T13:53:32.829Z,9.53
2018-08-09T13:56:00.184Z,6.15
2018-08-09T13:58:27.692Z,5.40
2018-08-09T14:00:55.060Z,6.15
2018-08-09T14:03:22.441Z,5.85
2018-08-09T14:05:49.809Z,5.67
2018-08-09T14:08:17.178Z,5.22
2018-08-09T14:10:44.594Z,6.03
2018-08-09T14:13:12.010Z,6.37
2018-08-09T14:15:40.425Z,5.70
2018-08-09T14:18:07.783Z,6.60
2018-08-09T14:20:35.163Z,3.70
2018-08-09T14:23:02.755Z,8.53
2018-08-09T14:25:32.483Z,4.58
2018-08-09T14:27:59.902Z,5.87
2018-08-09T14:30:27.303Z,6.40
2018-08-09T14:32:54.740Z,6.85
2018-08-09T14:35:22.121Z,4.28
2018-08-09T14:37:49.494Z,7.60
2018-08-09T14:40:17.026Z,6.17
2018-08-09T14:42:44.404Z,7.53
2018-08-09T14:45:13.727Z,8.80
2018-08-09T14:47:41.167Z,5.75
2018-08-09T14:50:09.138Z,5.72
2018-08-09T14:52:38.608Z,8.03
2018-08-09T14:55:08.619Z,6.65
2018-08-09T14:57:36.036Z,9.18
2018-08-09T15:00:06.439Z,9.98
2018-08-09T15:02:33.776Z,5.85
2018-08-09T15:05:01.209Z,6.25
2018-08-09T15:07:28.718Z,5.58
2018-08-09T15:09:56.131Z,5.22
2018-08-09T15:12:24.215Z,6.00
2018-08-09T15:14:51.564Z,5.75
2018-08-09T15:17:18.924Z,7.37
2018-08-09T15:19:46.563Z,7.97
2018-08-09T15:22:14.010Z,8.03
2018-08-09T15:24:41.375Z,6.25
2018-08-09T15:27:08.774Z,7.58
2018-08-09T15:29:36.230Z,7.10
2018-08-09T15:32:04.528Z,8.33
2018-08-09T15:34:32.244Z,6.33
2018-08-09T15:37:00.124Z,7.28
2018-08-09T15:39:27.715Z,6.80
2018-08-09T15:41:55.197Z,5.90
2018-08-09T15:44:22.837Z,9.93
2018-08-09T15:46:50.235Z,11.88
2018-08-09T15:49:17.596Z,7.62
2018-08-09T15:51:45.240Z,6.90
2018-08-09T15:54:12.666Z,8.58
2018-08-09T15:56:40.114Z,7.15
2018-08-09T15:59:07.408Z,6.95
2018-08-09T16:01:34.791Z,7.10
2018-08-09T16:04:02.301Z,7.97
2018-08-09T16:06:29.667Z,7.62
2018-08-09T16:08:57.115Z,7.85
2018-08-09T16:11:24.446Z,6.47
2018-08-09T16:13:53.157Z,6.72
2018-08-09T16:16:20.594Z,8.50
2018-08-09T16:18:48.623Z,8.68
2018-08-09T16:21:15.999Z,17.92
2018-08-09T16:23:43.407Z,35.03
2018-08-09T16:26:10.718Z,34.58
2018-08-09T16:28:38.754Z,24.92
2018-08-09T16:31:06.425Z,13.93
2018-08-09T16:33:33.796Z,12.18
2018-08-09T16:36:01.664Z,21.05
2018-08-09T16:38:29.076Z,11.95
2018-08-09T16:40:57.046Z,12.53
2018-08-09T16:43:24.624Z,6.47
2018-08-09T16:45:52.080Z,9.63
2018-08-09T16:48:19.568Z,11.78
2018-08-09T16:50:47.534Z,9.58
2018-08-09T16:53:14.875Z,16.25
2018-08-09T16:55:42.310Z,8.50
2018-08-09T16:58:09.726Z,7.30
2018-08-09T17:00:37.176Z,6.62
2018-08-09T17:03:05.323Z,8.70
2018-08-09T17:05:32.706Z,6.08
2018-08-09T17:08:00.456Z,6.40
2018-08-09T17:10:28.225Z,6.05
2018-08-09T17:12:55.636Z,9.00
2018-08-09T17:15:25.463Z,6.22
2018-08-09T17:17:53.529Z,7.62
2018-08-09T17:20:26.064Z,8.50
2018-08-09T17:22:53.862Z,6.53
2018-08-09T17:25:21.297Z,4.87
2018-08-09T17:27:51.182Z,4.05
2018-08-09T17:30:20.278Z,8.30
2018-08-09T17:32:48.369Z,4.10
2018-08-09T17:35:16.596Z,7.37
2018-08-09T17:37:44.457Z,9.75
2018-08-09T17:40:18.150Z,5.50
2018-08-09T17:42:46.474Z,4.12
2018-08-09T17:45:14.517Z,3.70
2018-08-09T17:47:42.217Z,6.47
2018-08-09T17:50:11.687Z,2.90
2018-08-09T17:52:39.398Z,7.90
2018-08-09T17:55:09.557Z,7.00
2018-08-09T17:57:38.008Z,6.62
2018-08-09T18:00:09.157Z,4.47
2018-08-09T18:02:37.071Z,4.83
2018-08-09T18:05:07.120Z,4.33
2018-08-09T18:07:34.961Z,5.70
2018-08-09T18:10:19.830Z,8.08
2018-08-09T18:12:50.849Z,3.87
2018-08-09T18:15:19.999Z,5.17
2018-08-09T18:17:48.219Z,3.72
2018-08-09T18:20:17.506Z,3.37
2018-08-09T18:22:45.488Z,4.72
2018-08-09T18:25:13.816Z,7.67
2018-08-09T18:27:41.336Z,3.83
2018-08-09T18:30:12.607Z,5.40
2018-08-09T18:32:40.383Z,6.83
2018-08-09T18:35:08.925Z,7.70
2018-08-09T18:37:37.974Z,6.00
2018-08-09T18:40:07.339Z,2.35
2018-08-09T18:42:35.566Z,2.22
2018-08-09T18:45:04.545Z,3.60
2018-08-09T18:47:32.250Z,5.03
2018-08-09T18:50:01.640Z,6.35
2018-08-09T18:52:29.728Z,2.87
2018-08-09T18:54:57.797Z,2.20
2018-08-09T18:57:25.393Z,3.20
2018-08-09T18:59:53.087Z,4.72
2018-08-09T19:02:20.563Z,5.22
2018-08-09T19:04:48.409Z,4.50
2018-08-09T19:07:15.878Z,4.90
2018-08-09T19:09:43.282Z,3.83
2018-08-09T19:12:10.717Z,2.00
2018-08-09T19:14:38.384Z,4.95
2018-08-09T19:17:05.896Z,4.72
2018-08-09T19:19:33.777Z,5.75
2018-08-09T19:22:01.720Z,5.62
2018-08-09T19:24:29.392Z,3.95
2018-08-09T19:26:56.950Z,5.40
2018-08-09T19:29:25.470Z,4.30
2018-08-09T19:31:53.642Z,4.80
2018-08-09T19:34:21.287Z,4.35
2018-08-09T19:36:49.805Z,4.00
2018-08-09T19:39:18.362Z,4.33
2018-08-09T19:41:46.979Z,2.52
2018-08-09T19:44:15.467Z,3.22
2018-08-09T19:46:43.403Z,2.30
2018-08-09T19:49:11.141Z,1.77
2018-08-09T19:51:38.691Z,2.58
2018-08-09T19:54:06.939Z,2.20
2018-08-09T19:56:35.084Z,2.43
2018-08-09T19:59:03.080Z,1.87
2018-08-09T20:01:30.496Z,1.33
2018-08-09T20:03:58.844Z,3.47
2018-08-09T20:06:26.343Z,3.57
2018-08-09T20:08:53.783Z,5.28
2018-08-09T20:11:22.085Z,4.23
2018-08-09T20:13:49.509Z,4.83
2018-08-09T20:16:17.546Z,2.13
2018-08-09T20:18:44.842Z,2.27
2018-08-09T20:21:12.283Z,2.50
2018-08-09T20:23:39.611Z,3.07
2018-08-09T20:26:06.938Z,2.70
2018-08-09T20:28:34.203Z,1.80
2018-08-09T20:31:01.491Z,1.63
2018-08-09T20:33:28.924Z,2.27
2018-08-09T20:35:56.312Z,3.03
2018-08-09T20:38:23.635Z,3.13
2018-08-09T20:40:50.935Z,4.60
2018-08-09T20:43:18.253Z,1.90
2018-08-09T20:45:45.512Z,3.30
2018-08-09T20:48:12.891Z,7.90
2018-08-09T20:50:40.185Z,1.53
2018-08-09T20:53:07.704Z,2.00
2018-08-09T20:55:35.073Z,3.67
2018-08-09T20:58:02.540Z,2.87
2018-08-09T21:00:32.440Z,5.20
2018-08-09T21:03:01.116Z,1.53
2018-08-09T21:05:30.885Z,3.20
2018-08-09T21:07:58.320Z,1.20
2018-08-09T21:10:26.073Z,2.03
2018-08-09T21:12:53.427Z,4.73
2018-08-09T21:15:20.969Z,2.67
2018-08-09T21:17:48.338Z,7.37
2018-08-09T21:20:15.878Z,1.67
2018-08-09T21:22:44.290Z,1.43
2018-08-09T21:25:11.952Z,3.80
2018-08-09T21:27:39.279Z,1.33
2018-08-09T21:30:08.423Z,2.07
2018-08-09T21:32:35.995Z,1.60
2018-08-09T21:35:03.816Z,2.00
2018-08-09T21:37:31.076Z,2.20
2018-08-09T21:39:58.368Z,2.57
2018-08-09T21:42:25.634Z,3.47
2018-08-09T21:44:52.907Z,1.13
2018-08-09T21:47:20.213Z,1.27
2018-08-09T21:49:47.984Z,2.10
2018-08-09T21:52:15.294Z,3.33
2018-08-09T21:54:42.551Z,2.57
2018-08-09T21:57:10.071Z,3.03
2018-08-09T21:59:37.370Z,3.93
2018-08-09T22:02:05.000Z,1.20
2018-08-09T22:04:35.480Z,1.53
2018-08-09T22:07:08.532Z,1.20
2018-08-09T22:09:41.539Z,3.43
2018-08-09T22:12:14.479Z,1.73
2018-08-09T22:14:47.330Z,2.67
2018-08-09T22:17:20.211Z,2.43
2018-08-09T22:19:53.154Z,2.30
2018-08-09T22:22:23.436Z,1.50
2018-08-09T22:24:50.694Z,2.50
2018-08-09T22:27:18.060Z,2.23
2018-08-09T22:29:45.317Z,2.70
2018-08-09T22:32:12.659Z,6.20
2018-08-09T22:34:39.911Z,3.27
2018-08-09T22:37:07.287Z,2.20
2018-08-09T22:39:34.535Z,1.60
2018-08-09T22:42:01.851Z,1.07
2018-08-09T22:44:29.118Z,3.07
2018-08-09T22:46:56.387Z,2.80
2018-08-09T22:49:23.679Z,2.57
2018-08-09T22:51:50.925Z,1.53
2018-08-09T22:54:18.210Z,1.83
2018-08-09T22:56:45.511Z,2.10
2018-08-09T22:59:12.852Z,1.27
2018-08-09T23:01:40.114Z,2.20
2018-08-09T23:04:07.418Z,2.23
2018-08-09T23:06:34.648Z,3.03
2018-08-09T23:09:02.006Z,1.67
2018-08-09T23:11:29.321Z,1.30
2018-08-09T23:13:56.647Z,2.30
2018-08-09T23:16:23.947Z,3.13
2018-08-09T23:18:52.242Z,1.33
2018-08-09T23:21:19.515Z,1.80
2018-08-09T23:23:46.834Z,2.67
2018-08-09T23:26:14.087Z,3.00
2018-08-09T23:28:41.441Z,1.73
2018-08-09T23:31:08.680Z,2.20
2018-08-09T23:33:36.042Z,1.53
2018-08-09T23:36:03.370Z,1.53
2018-08-09T23:38:30.624Z,1.60
2018-08-09T23:40:57.922Z,2.70
2018-08-09T23:43:25.231Z,2.87
2018-08-09T23:45:52.490Z,1.13
2018-08-09T23:48:19.814Z,2.50
2018-08-09T23:50:47.177Z,1.70
2018-08-09T23:53:14.487Z,0.90
2018-08-09T23:55:41.746Z,1.87
2018-08-09T23:58:09.075Z,1.70
